Gem, KS (67734)

9:42 AM CST on March 03, 2015 (GMT -0600)
NE Colby | Change Station
CLOSE
Current Station
Personal Weather Station
Location: Colby, KS
Elevation: 3097 ft
Nearby Weather Stations

Elev 3097 ft 39.42 °N, 100.98 °W | Updated 2 minutes ago

Overcast
Overcast
34.1 °F
Feels Like 26 °F
N
11.0
Wind Variable Wind from NNW
Gusts 11.0 mph

Today
High -- | Low -- °F
--% Chance of Precip.
Yesterday
High -- | Low -- °F
Precip. -- in
7:13 AM 6:37 PM
Waxing Gibbous, 96% visible
Pressure 29.84 in
Visibility 5.0 miles
Clouds Mostly Cloudy 1600 ft
Overcast 2000 ft
Windchill 26 °F
Dew Point 30 °F
Humidity 85%
Rainfall 0.00 in
Snow Depth Not available.
UV 1 out of 12
Pollen 3.70 out of 12
Air Quality Not available.
Flu Activity Not available.
METAR KCBK 031515Z AUTO 33012KT 5SM BR BKN016 OVC020 01/00 A2984 RMK AO2

More Conditions Fewer Conditions

Pressure 29.84 in
Visibility 5.0 miles
Clouds Mostly Cloudy 1600 ft
Overcast 2000 ft
Windchill 26 °F
Dew Point 30 °F
Humidity 85%
Rainfall 0.00 in
Snow Depth Not available.
UV 1 out of 12
Pollen 3.70 out of 12
Air Quality Not available.
Flu Activity Not available.
METAR KCBK 031515Z AUTO 33012KT 5SM BR BKN016 OVC020 01/00 A2984 RMK AO2

More Conditions Fewer Conditions

10-Day Weather Forecast

Almanac

Astronomy

Mar. 03, 2015 Rise Set
Actual Time
Civil Twilight
Nautical Twilight
Astronomical Twilight
Moon
Length of Visible Light
Length of Day
Tomorrow will be .
, % of the Moon is Illuminated

Today's Extremes

State Highs State Lows

Community

WunderPhotos

Upload Photos

1,802,149 photos uploaded!

WunderBlogs® & News

Nearby

Air Quality

  Air Quality AQ Index Pollutant
Not available.

Snow Depth

Station Depth Elevation

Earthquake Activity

City Distance Mag. Time & Date
Minimum magnitude displayed is 2.5.

Coastal Water Temperatures

Place Temperature

Nearby Weather Stations